Fountain Bluff, Illinois
Current Conditions -  °F | °C
As of 12:52 PM on Friday 21 Nov 2014 (Local Time) from KMDH Reporting Station
Overcast Overcast  
Wind Chill: 38°   Ceiling: 3900
Heat Index: 43°   Visibility: 10mi
Dew Point: 21°   Wind: 8mph
Humidity: 42%   Direction: 90°E
Pressure: 30.37"   Gusts: NA
Location:  37.7458°N, 89.5469°W
Report Text: KMDH 211852Z 09007KT 10SM OVC039 06/M06 A3037 RMK AO2 SLP290 T00611061
Loading
Personal Weather Stations






























Interactive Weather Map New forecast layout! Learn more

10-Day Weather Forecast

Advertisements
Track Severe Weather on mobile